createdAt,value
2023-05-22T00:00:08.709Z,12.97
2023-05-22T00:02:42.920Z,12.67
2023-05-22T00:05:11.460Z,12.93
2023-05-22T00:07:39.072Z,13.57
2023-05-22T00:10:06.882Z,12.27
2023-05-22T00:12:33.580Z,13.23
2023-05-22T00:15:00.554Z,12.83
2023-05-22T00:17:27.471Z,13.03
2023-05-22T00:19:55.205Z,12.90
2023-05-22T00:22:21.929Z,13.07
2023-05-22T00:24:48.533Z,12.97
2023-05-22T00:27:15.154Z,13.03
2023-05-22T00:29:41.834Z,13.43
2023-05-22T00:32:08.452Z,13.37
2023-05-22T00:34:35.155Z,12.80
2023-05-22T00:37:01.787Z,12.70
2023-05-22T00:39:28.398Z,13.13
2023-05-22T00:41:55.109Z,12.80
2023-05-22T00:44:21.851Z,13.57
2023-05-22T00:46:48.542Z,12.60
2023-05-22T00:49:15.272Z,12.83
2023-05-22T00:51:41.983Z,13.83
2023-05-22T00:54:09.014Z,13.17
2023-05-22T00:56:35.633Z,13.00
2023-05-22T00:59:02.304Z,13.47
2023-05-22T01:01:33.669Z,13.37
2023-05-22T01:04:02.022Z,13.57
2023-05-22T01:06:32.158Z,13.90
2023-05-22T01:08:59.098Z,13.63
2023-05-22T01:11:31.342Z,13.50
2023-05-22T01:14:10.823Z,14.10
2023-05-22T01:16:48.905Z,13.57
2023-05-22T01:19:47.999Z,14.37
2023-05-22T01:22:28.306Z,14.10
2023-05-22T01:25:37.159Z,14.13
2023-05-22T01:28:27.461Z,13.93
2023-05-22T01:31:11.130Z,14.13
2023-05-22T01:33:49.421Z,14.87
2023-05-22T01:36:20.335Z,14.80
2023-05-22T01:38:47.438Z,15.90
2023-05-22T01:41:14.290Z,14.63
2023-05-22T01:43:41.816Z,14.63
2023-05-22T01:46:08.729Z,15.40
2023-05-22T01:48:36.181Z,14.83
2023-05-22T01:51:09.137Z,15.60
2023-05-22T01:53:43.624Z,15.70
2023-05-22T01:56:15.057Z,15.00
2023-05-22T01:58:45.736Z,15.40
2023-05-22T02:01:14.439Z,15.90
2023-05-22T02:03:41.971Z,15.10
2023-05-22T02:06:10.331Z,15.60
2023-05-22T02:08:38.962Z,16.47
2023-05-22T02:11:06.737Z,16.47
2023-05-22T02:13:33.798Z,16.97
2023-05-22T02:16:03.085Z,15.90
2023-05-22T02:18:31.145Z,16.87
2023-05-22T02:20:58.360Z,15.67
2023-05-22T02:23:25.369Z,16.07
2023-05-22T02:25:52.147Z,16.10
2023-05-22T02:28:18.831Z,17.07
2023-05-22T02:30:46.526Z,16.03
2023-05-22T02:33:18.256Z,15.20
2023-05-22T02:35:45.709Z,15.83
2023-05-22T02:38:12.830Z,14.97
2023-05-22T02:40:40.287Z,15.60
2023-05-22T02:43:07.282Z,15.60
2023-05-22T02:45:34.088Z,15.77
2023-05-22T02:48:03.549Z,14.17
2023-05-22T02:50:31.997Z,14.97
2023-05-22T02:52:58.646Z,15.40
2023-05-22T02:55:25.687Z,15.53
2023-05-22T02:57:52.358Z,16.07
2023-05-22T03:00:19.632Z,16.13
2023-05-22T03:02:46.350Z,16.40
2023-05-22T03:05:17.502Z,15.93
2023-05-22T03:07:47.401Z,16.30
2023-05-22T03:10:15.336Z,15.97
2023-05-22T03:12:42.053Z,16.10
2023-05-22T03:15:09.663Z,15.57
2023-05-22T03:17:37.278Z,15.47
2023-05-22T03:20:05.341Z,16.00
2023-05-22T03:22:32.126Z,16.23
2023-05-22T03:24:58.818Z,15.97
2023-05-22T03:27:25.483Z,14.50
2023-05-22T03:29:52.634Z,14.83
2023-05-22T03:32:19.714Z,15.63
2023-05-22T03:34:46.598Z,15.00
2023-05-22T03:37:13.190Z,14.47
2023-05-22T03:39:40.072Z,15.80
2023-05-22T03:42:17.441Z,15.67
2023-05-22T03:44:44.859Z,15.77
2023-05-22T03:47:11.896Z,15.70
2023-05-22T03:49:38.577Z,15.43
2023-05-22T03:52:05.374Z,16.30
2023-05-22T03:54:31.976Z,15.50
2023-05-22T03:56:58.624Z,15.20
2023-05-22T03:59:25.734Z,15.57
2023-05-22T04:01:52.389Z,15.83
2023-05-22T04:04:19.005Z,15.50
2023-05-22T04:06:45.814Z,14.10
2023-05-22T04:09:12.987Z,13.33
2023-05-22T04:11:39.794Z,13.57
2023-05-22T04:14:06.824Z,13.87
2023-05-22T04:16:33.930Z,13.97
2023-05-22T04:19:04.212Z,14.37
2023-05-22T04:21:34.354Z,14.33
2023-05-22T04:24:07.357Z,14.23
2023-05-22T04:26:34.432Z,15.00
2023-05-22T04:29:01.275Z,14.00
2023-05-22T04:31:28.731Z,14.40
2023-05-22T04:33:56.141Z,14.17
2023-05-22T04:36:25.998Z,13.70
2023-05-22T04:38:53.213Z,13.80
2023-05-22T04:41:22.678Z,13.70
2023-05-22T04:43:52.935Z,13.13
2023-05-22T04:46:19.779Z,13.17
2023-05-22T04:48:47.218Z,12.97
2023-05-22T04:51:15.920Z,12.43
2023-05-22T04:53:42.768Z,12.70
2023-05-22T04:56:09.752Z,12.73
2023-05-22T04:58:38.204Z,12.37
2023-05-22T05:01:05.934Z,12.80
2023-05-22T05:03:32.721Z,12.47
2023-05-22T05:06:00.488Z,12.07
2023-05-22T05:08:27.250Z,12.00
2023-05-22T05:10:53.882Z,12.40
2023-05-22T05:13:20.662Z,12.40
2023-05-22T05:15:47.750Z,12.30
2023-05-22T05:18:14.491Z,12.40
2023-05-22T05:20:42.145Z,12.10
2023-05-22T05:23:10.329Z,12.03
2023-05-22T05:25:38.743Z,11.80
2023-05-22T05:28:11.638Z,11.87
2023-05-22T05:30:40.614Z,12.23
2023-05-22T05:33:13.085Z,11.90
2023-05-22T05:35:58.064Z,11.67
2023-05-22T05:38:25.287Z,12.40
2023-05-22T05:40:52.726Z,11.90
2023-05-22T05:43:20.741Z,12.53
2023-05-22T05:45:49.041Z,12.27
2023-05-22T05:48:16.678Z,13.23
2023-05-22T05:50:45.605Z,12.80
2023-05-22T05:53:12.613Z,12.57
2023-05-22T05:55:42.851Z,12.60
2023-05-22T05:58:09.494Z,12.83
2023-05-22T06:00:42.520Z,12.73
2023-05-22T06:03:10.456Z,12.23
2023-05-22T06:05:49.895Z,11.80
2023-05-22T06:08:25.638Z,12.90
2023-05-22T06:10:52.749Z,13.63
2023-05-22T06:13:35.504Z,12.20
2023-05-22T06:16:04.817Z,12.83
2023-05-22T06:18:34.329Z,12.37
2023-05-22T06:21:01.076Z,12.40
2023-05-22T06:23:27.924Z,12.10
2023-05-22T06:25:55.657Z,11.50
2023-05-22T06:28:23.312Z,11.87
2023-05-22T06:30:50.189Z,12.60
2023-05-22T06:33:19.325Z,12.53
2023-05-22T06:35:46.117Z,12.57
2023-05-22T06:38:12.916Z,11.43
2023-05-22T06:40:41.895Z,11.77
2023-05-22T06:43:14.065Z,11.17
2023-05-22T06:45:51.605Z,12.33
2023-05-22T06:48:24.105Z,12.37
2023-05-22T06:50:59.231Z,12.57
2023-05-22T06:53:26.499Z,11.50
2023-05-22T06:55:53.132Z,12.23
2023-05-22T06:58:30.095Z,11.33
2023-05-22T07:00:56.817Z,11.63
2023-05-22T07:03:31.269Z,11.00
2023-05-22T07:06:18.526Z,10.90
2023-05-22T07:08:45.778Z,10.65
2023-05-22T07:11:12.374Z,11.00
2023-05-22T07:13:39.592Z,10.63
2023-05-22T07:16:06.471Z,10.40
2023-05-22T07:18:34.518Z,10.07
2023-05-22T07:21:01.579Z,9.95
2023-05-22T07:23:28.638Z,10.23
2023-05-22T07:25:55.432Z,9.48
2023-05-22T07:28:25.555Z,10.02
2023-05-22T07:31:00.407Z,9.63
2023-05-22T07:33:27.268Z,9.13
2023-05-22T07:35:55.613Z,9.07
2023-05-22T07:38:22.402Z,8.82
2023-05-22T07:40:56.819Z,9.07
2023-05-22T07:43:24.414Z,9.00
2023-05-22T07:45:51.656Z,9.50
2023-05-22T07:48:22.251Z,9.15
2023-05-22T07:50:49.216Z,8.93
2023-05-22T07:53:16.493Z,8.95
2023-05-22T07:55:44.792Z,7.68
2023-05-22T07:58:11.458Z,8.43
2023-05-22T08:00:41.832Z,8.15
2023-05-22T08:03:08.778Z,7.00
2023-05-22T08:05:35.580Z,7.38
2023-05-22T08:08:03.025Z,8.98
2023-05-22T08:10:37.292Z,8.38
2023-05-22T08:13:13.712Z,7.70
2023-05-22T08:15:40.421Z,7.80
2023-05-22T08:18:07.126Z,7.82
2023-05-22T08:20:34.190Z,8.23
2023-05-22T08:23:01.058Z,8.45
2023-05-22T08:25:27.736Z,8.55
2023-05-22T08:27:54.356Z,8.50
2023-05-22T08:30:20.995Z,8.27
2023-05-22T08:32:47.667Z,8.00
2023-05-22T08:35:14.549Z,9.35
2023-05-22T08:37:41.321Z,8.43
2023-05-22T08:40:12.594Z,8.88
2023-05-22T08:42:39.346Z,8.60
2023-05-22T08:45:07.112Z,8.70
2023-05-22T08:47:37.541Z,8.98
2023-05-22T08:50:04.710Z,8.48
2023-05-22T08:52:38.821Z,8.68
2023-05-22T08:55:06.716Z,8.65
2023-05-22T08:57:34.174Z,9.05
2023-05-22T09:00:01.084Z,8.52
2023-05-22T09:02:28.490Z,8.82
2023-05-22T09:04:55.306Z,7.07
2023-05-22T09:07:22.166Z,6.85
2023-05-22T09:09:49.588Z,6.45
2023-05-22T09:12:16.900Z,6.22
2023-05-22T09:14:44.255Z,6.20
2023-05-22T09:17:15.221Z,5.60
2023-05-22T09:19:48.165Z,5.30
2023-05-22T09:22:14.965Z,4.90
2023-05-22T09:24:42.477Z,5.28
2023-05-22T09:27:11.100Z,5.00
2023-05-22T09:29:49.356Z,5.68
2023-05-22T09:32:17.253Z,4.97
2023-05-22T09:34:45.200Z,5.05
2023-05-22T09:37:14.448Z,4.80
2023-05-22T09:39:43.762Z,4.70
2023-05-22T09:42:12.719Z,4.47
2023-05-22T09:44:39.493Z,4.60
2023-05-22T09:47:06.757Z,4.57
2023-05-22T09:49:41.137Z,4.75
2023-05-22T09:52:08.841Z,5.00
2023-05-22T09:54:36.068Z,4.72
2023-05-22T09:57:04.819Z,4.47
2023-05-22T09:59:33.309Z,4.78
2023-05-22T10:02:02.209Z,4.72
2023-05-22T10:04:30.613Z,4.78
2023-05-22T10:06:57.818Z,4.57
2023-05-22T10:09:26.474Z,5.32
2023-05-22T10:11:54.022Z,4.15
2023-05-22T10:14:20.761Z,4.70
2023-05-22T10:16:47.702Z,4.70
2023-05-22T10:19:14.529Z,4.88
2023-05-22T10:21:41.749Z,4.55
2023-05-22T10:24:08.760Z,4.75
2023-05-22T10:26:35.492Z,5.00
2023-05-22T10:29:11.254Z,4.53
2023-05-22T10:32:24.283Z,4.97
2023-05-22T10:35:08.285Z,5.00
2023-05-22T10:38:02.686Z,5.05
2023-05-22T10:40:33.644Z,4.63
2023-05-22T10:43:01.767Z,4.90
2023-05-22T10:45:29.220Z,4.97
2023-05-22T10:48:23.263Z,4.57
2023-05-22T10:50:53.672Z,5.03
2023-05-22T10:53:32.306Z,4.75
2023-05-22T10:56:02.602Z,4.53
2023-05-22T10:58:31.195Z,5.03
2023-05-22T11:01:15.362Z,4.80
2023-05-22T11:03:55.198Z,5.07
2023-05-22T11:06:45.733Z,4.90
2023-05-22T11:09:29.287Z,4.75
2023-05-22T11:12:17.821Z,4.90
2023-05-22T11:14:56.312Z,4.78
2023-05-22T11:17:30.817Z,4.50
2023-05-22T11:20:28.928Z,5.03
2023-05-22T11:23:00.311Z,4.80
2023-05-22T11:25:27.828Z,5.10
2023-05-22T11:27:55.223Z,5.22
2023-05-22T11:30:25.830Z,4.70
2023-05-22T11:32:52.742Z,5.13
2023-05-22T11:35:21.219Z,5.00
2023-05-22T11:37:49.124Z,4.70
2023-05-22T11:40:17.335Z,5.00
2023-05-22T11:42:44.061Z,4.75
2023-05-22T11:45:11.811Z,4.97
2023-05-22T11:47:38.670Z,5.05
2023-05-22T11:50:06.852Z,4.80
2023-05-22T11:52:35.155Z,4.63
2023-05-22T11:55:02.204Z,4.70
2023-05-22T11:57:28.955Z,4.90
2023-05-22T11:59:56.082Z,4.90
2023-05-22T12:02:22.747Z,4.70
2023-05-22T12:04:54.658Z,4.70
2023-05-22T12:07:22.473Z,4.80
2023-05-22T12:09:49.328Z,5.00
2023-05-22T12:12:16.414Z,4.90
2023-05-22T12:14:46.793Z,4.80
2023-05-22T12:17:14.193Z,5.07
2023-05-22T12:19:41.504Z,5.03
2023-05-22T12:22:11.731Z,4.78
2023-05-22T12:24:39.491Z,5.32
2023-05-22T12:27:08.468Z,4.70
2023-05-22T12:29:35.178Z,4.60
2023-05-22T12:32:07.341Z,4.95
2023-05-22T12:34:34.987Z,4.85
2023-05-22T12:37:01.904Z,4.75
2023-05-22T12:39:29.760Z,4.78
2023-05-22T12:41:56.964Z,4.90
2023-05-22T12:44:23.737Z,4.90
2023-05-22T12:46:50.430Z,4.47
2023-05-22T12:49:17.182Z,5.10
2023-05-22T12:51:44.034Z,4.65
2023-05-22T12:54:10.740Z,5.25
2023-05-22T12:56:37.448Z,4.80
2023-05-22T12:59:04.179Z,4.90
2023-05-22T13:01:30.913Z,4.60
2023-05-22T13:03:57.621Z,4.57
2023-05-22T13:06:24.288Z,5.50
2023-05-22T13:08:51.150Z,4.93
2023-05-22T13:11:20.049Z,4.50
2023-05-22T13:13:46.699Z,4.82
2023-05-22T13:16:13.427Z,4.57
2023-05-22T13:18:40.063Z,4.30
2023-05-22T13:21:06.729Z,4.55
2023-05-22T13:23:33.373Z,4.70
2023-05-22T13:26:02.042Z,4.47
2023-05-22T13:28:29.149Z,4.00
2023-05-22T13:30:56.517Z,4.78
2023-05-22T13:33:23.249Z,4.25
2023-05-22T13:35:49.910Z,4.88
2023-05-22T13:38:16.625Z,4.50
2023-05-22T13:40:43.254Z,4.40
2023-05-22T13:43:09.941Z,4.20
2023-05-22T13:45:36.582Z,4.85
2023-05-22T13:48:03.348Z,4.47
2023-05-22T13:50:30.011Z,4.82
2023-05-22T13:52:56.656Z,4.93
2023-05-22T13:55:23.331Z,4.40
2023-05-22T13:57:49.926Z,4.53
2023-05-22T14:00:17.042Z,4.13
2023-05-22T14:02:44.537Z,4.38
2023-05-22T14:05:11.314Z,4.50
2023-05-22T14:07:37.979Z,5.28
2023-05-22T14:10:04.963Z,4.30
2023-05-22T14:12:31.599Z,4.68
2023-05-22T14:14:58.306Z,4.53
2023-05-22T14:17:25.063Z,4.75
2023-05-22T14:19:51.727Z,4.80
2023-05-22T14:22:18.448Z,4.25
2023-05-22T14:24:45.065Z,4.45
2023-05-22T14:27:11.726Z,4.22
2023-05-22T14:29:38.397Z,4.32
2023-05-22T14:32:05.420Z,4.30
2023-05-22T14:34:32.203Z,5.07
2023-05-22T14:36:58.889Z,4.88
2023-05-22T14:39:25.828Z,4.90
2023-05-22T14:41:55.562Z,5.15
2023-05-22T14:44:25.123Z,5.10
2023-05-22T14:46:53.416Z,4.75
2023-05-22T14:49:20.052Z,5.00
2023-05-22T14:51:48.267Z,4.88
2023-05-22T14:54:19.163Z,4.97
2023-05-22T14:56:46.318Z,5.10
2023-05-22T14:59:14.168Z,4.53
2023-05-22T15:01:41.100Z,4.95
2023-05-22T15:04:09.015Z,5.00
2023-05-22T15:06:36.315Z,5.32
2023-05-22T15:09:03.314Z,4.63
2023-05-22T15:11:30.072Z,4.80
2023-05-22T15:13:56.743Z,5.22
2023-05-22T15:16:23.652Z,4.75
2023-05-22T15:18:50.540Z,4.72
2023-05-22T15:21:17.360Z,8.68
2023-05-22T15:23:44.175Z,10.20
2023-05-22T15:26:10.964Z,6.35
2023-05-22T15:28:37.611Z,9.73
2023-05-22T15:31:04.263Z,4.97
2023-05-22T15:33:31.105Z,4.75
2023-05-22T15:35:57.775Z,4.63
2023-05-22T15:38:24.419Z,5.00
2023-05-22T15:40:51.063Z,4.82
2023-05-22T15:43:17.698Z,5.28
2023-05-22T15:45:47.445Z,5.38
2023-05-22T15:48:14.431Z,4.88
2023-05-22T15:50:41.067Z,4.90
2023-05-22T15:53:07.744Z,4.70
2023-05-22T15:55:34.446Z,4.82
2023-05-22T15:58:02.626Z,4.60
2023-05-22T16:00:29.332Z,4.53
2023-05-22T16:02:56.087Z,4.68
2023-05-22T16:05:22.839Z,5.80
2023-05-22T16:07:49.506Z,5.35
2023-05-22T16:10:16.180Z,4.45
2023-05-22T16:12:42.799Z,5.07
2023-05-22T16:15:09.902Z,5.22
2023-05-22T16:17:37.882Z,5.10
2023-05-22T16:20:05.330Z,4.63
2023-05-22T16:22:44.327Z,4.85
2023-05-22T16:25:16.801Z,4.80
2023-05-22T16:27:43.607Z,4.93
2023-05-22T16:30:11.434Z,4.82
2023-05-22T16:32:38.373Z,4.93
2023-05-22T16:35:05.547Z,4.97
2023-05-22T16:37:33.190Z,4.65
2023-05-22T16:40:00.054Z,4.82
2023-05-22T16:42:27.237Z,4.75
2023-05-22T16:44:53.907Z,4.85
2023-05-22T16:47:21.409Z,5.03
2023-05-22T16:49:48.069Z,4.75
2023-05-22T16:52:14.720Z,4.88
2023-05-22T16:54:41.381Z,5.03
2023-05-22T16:57:08.051Z,6.20
2023-05-22T16:59:34.771Z,12.55
2023-05-22T17:02:01.436Z,5.45
2023-05-22T17:04:28.126Z,5.25
2023-05-22T17:06:55.764Z,6.45
2023-05-22T17:09:22.421Z,5.10
2023-05-22T17:11:49.095Z,4.70
2023-05-22T17:14:15.796Z,5.20
2023-05-22T17:16:42.529Z,5.80
2023-05-22T17:19:09.888Z,5.70
2023-05-22T17:21:37.957Z,4.90
2023-05-22T17:24:04.951Z,5.25
2023-05-22T17:26:33.519Z,5.25
2023-05-22T17:29:00.228Z,6.03
2023-05-22T17:31:27.173Z,5.70
2023-05-22T17:33:53.909Z,5.70
2023-05-22T17:36:20.537Z,5.65
2023-05-22T17:38:47.152Z,5.47
2023-05-22T17:41:13.788Z,5.18
2023-05-22T17:43:40.839Z,6.10
2023-05-22T17:46:07.496Z,4.90
2023-05-22T17:48:34.432Z,5.35
2023-05-22T17:51:02.118Z,5.80
2023-05-22T17:53:34.002Z,6.20
2023-05-22T17:56:01.217Z,5.78
2023-05-22T17:58:27.988Z,5.80
2023-05-22T18:00:54.717Z,5.70
2023-05-22T18:03:21.466Z,5.30
2023-05-22T18:05:49.383Z,5.13
2023-05-22T18:08:16.682Z,5.10
2023-05-22T18:10:43.592Z,4.97
2023-05-22T18:13:10.939Z,4.50
2023-05-22T18:15:37.617Z,5.05
2023-05-22T18:18:04.664Z,5.10
2023-05-22T18:20:33.048Z,6.00
2023-05-22T18:23:00.001Z,5.60
2023-05-22T18:25:26.689Z,4.90
2023-05-22T18:27:53.371Z,5.20
2023-05-22T18:30:20.021Z,5.10
2023-05-22T18:32:46.845Z,5.88
2023-05-22T18:35:13.570Z,5.30
2023-05-22T18:37:40.247Z,5.03
2023-05-22T18:40:09.275Z,5.10
2023-05-22T18:42:36.035Z,4.88
2023-05-22T18:45:02.796Z,4.90
2023-05-22T18:47:29.566Z,5.30
2023-05-22T18:49:56.212Z,4.82
2023-05-22T18:52:22.864Z,4.95
2023-05-22T18:54:49.497Z,4.57
2023-05-22T18:57:16.236Z,4.60
2023-05-22T18:59:43.536Z,4.60
2023-05-22T19:02:10.710Z,4.10
2023-05-22T19:04:37.390Z,4.57
2023-05-22T19:07:04.227Z,4.72
2023-05-22T19:09:30.891Z,4.53
2023-05-22T19:11:57.509Z,5.00
2023-05-22T19:14:24.162Z,4.88
2023-05-22T19:16:50.893Z,5.00
2023-05-22T19:19:17.616Z,5.25
2023-05-22T19:21:44.342Z,5.15
2023-05-22T19:24:10.966Z,5.20
2023-05-22T19:26:37.598Z,5.50
2023-05-22T19:29:04.221Z,5.25
2023-05-22T19:31:31.068Z,5.20
2023-05-22T19:33:57.752Z,5.28
2023-05-22T19:36:24.374Z,4.72
2023-05-22T19:38:53.260Z,4.80
2023-05-22T19:41:20.608Z,5.18
2023-05-22T19:43:47.229Z,5.35
2023-05-22T19:46:13.960Z,5.10
2023-05-22T19:48:40.621Z,5.63
2023-05-22T19:51:08.719Z,5.53
2023-05-22T19:53:35.313Z,5.70
2023-05-22T19:56:02.663Z,5.60
2023-05-22T19:58:29.320Z,5.35
2023-05-22T20:00:55.963Z,5.80
2023-05-22T20:03:23.259Z,5.95
2023-05-22T20:05:52.700Z,6.93
2023-05-22T20:08:21.650Z,5.95
2023-05-22T20:10:48.719Z,5.65
2023-05-22T20:13:15.446Z,6.28
2023-05-22T20:15:42.323Z,6.00
2023-05-22T20:18:11.006Z,6.15
2023-05-22T20:20:37.973Z,6.13
2023-05-22T20:23:04.611Z,6.03
2023-05-22T20:25:31.349Z,6.10
2023-05-22T20:27:57.977Z,6.13
2023-05-22T20:30:24.644Z,6.25
2023-05-22T20:32:51.919Z,6.13
2023-05-22T20:35:20.078Z,6.75
2023-05-22T20:37:47.400Z,6.10
2023-05-22T20:40:15.092Z,6.33
2023-05-22T20:42:44.821Z,6.60
2023-05-22T20:45:14.417Z,6.47
2023-05-22T20:47:42.023Z,6.80
2023-05-22T20:50:09.137Z,7.23
2023-05-22T20:52:37.111Z,6.37
2023-05-22T20:55:04.404Z,6.00
2023-05-22T20:57:31.053Z,6.20
2023-05-22T20:59:58.329Z,6.13
2023-05-22T21:02:25.814Z,6.20
2023-05-22T21:04:53.665Z,6.30
2023-05-22T21:07:20.319Z,6.10
2023-05-22T21:09:46.993Z,6.67
2023-05-22T21:12:13.656Z,6.37
2023-05-22T21:14:40.351Z,6.23
2023-05-22T21:17:07.228Z,6.47
2023-05-22T21:19:34.070Z,6.10
2023-05-22T21:22:00.796Z,6.90
2023-05-22T21:24:27.452Z,6.70
2023-05-22T21:26:54.086Z,6.40
2023-05-22T21:29:20.763Z,6.37
2023-05-22T21:31:47.439Z,6.53
2023-05-22T21:34:14.282Z,6.20
2023-05-22T21:36:41.270Z,6.17
2023-05-22T21:39:07.954Z,6.33
2023-05-22T21:41:34.733Z,7.00
2023-05-22T21:44:01.422Z,6.40
2023-05-22T21:46:28.066Z,6.30
2023-05-22T21:48:54.722Z,6.70
2023-05-22T21:51:21.366Z,6.40
2023-05-22T21:53:48.064Z,6.40
2023-05-22T21:56:14.714Z,6.43
2023-05-22T21:58:41.309Z,6.70
2023-05-22T22:01:08.010Z,6.70
2023-05-22T22:03:34.802Z,6.70
2023-05-22T22:06:02.838Z,7.23
2023-05-22T22:08:29.512Z,6.57
2023-05-22T22:10:56.306Z,6.73
2023-05-22T22:13:22.902Z,6.97
2023-05-22T22:15:49.667Z,6.87
2023-05-22T22:18:16.445Z,7.00
2023-05-22T22:20:45.302Z,7.03
2023-05-22T22:23:12.731Z,7.43
2023-05-22T22:25:39.572Z,7.40
2023-05-22T22:28:07.388Z,7.73
2023-05-22T22:30:35.153Z,7.70
2023-05-22T22:33:02.115Z,7.87
2023-05-22T22:35:28.890Z,7.80
2023-05-22T22:37:55.645Z,8.10
2023-05-22T22:40:23.395Z,7.47
2023-05-22T22:42:51.610Z,7.50
2023-05-22T22:45:18.251Z,7.70
2023-05-22T22:47:45.899Z,8.00
2023-05-22T22:50:12.690Z,7.20
2023-05-22T22:52:45.306Z,7.17
2023-05-22T22:55:12.358Z,7.80
2023-05-22T22:57:39.182Z,7.37
2023-05-22T23:00:06.596Z,7.10
2023-05-22T23:02:33.302Z,7.23
2023-05-22T23:05:00.302Z,6.83
2023-05-22T23:07:28.166Z,7.40
2023-05-22T23:09:54.903Z,7.20
2023-05-22T23:12:21.511Z,7.23
2023-05-22T23:14:50.417Z,6.90
2023-05-22T23:17:17.072Z,7.77
2023-05-22T23:19:44.010Z,7.00
2023-05-22T23:22:10.930Z,6.87
2023-05-22T23:24:37.528Z,6.83
2023-05-22T23:27:04.282Z,6.83
2023-05-22T23:29:31.000Z,6.60
2023-05-22T23:31:57.730Z,6.77
2023-05-22T23:34:24.589Z,6.40
2023-05-22T23:36:51.632Z,7.80
2023-05-22T23:39:18.273Z,7.10
2023-05-22T23:41:45.492Z,7.07
2023-05-22T23:44:12.332Z,6.90
2023-05-22T23:46:39.795Z,7.80
2023-05-22T23:49:07.422Z,7.90
2023-05-22T23:51:34.194Z,7.87
2023-05-22T23:54:01.124Z,7.70
2023-05-22T23:56:27.963Z,7.43
2023-05-22T23:58:54.606Z,7.53
